Poseidon — JD3978 — position and weather

sailwx.info

Track history (hours):
 
Tides and Currents Weather Stations Pressure Air Temp Water Temp Dewpoint Dewpoint Depression Visibility Wind Speed Wind Dir Waves Ship Positions

Poseidon

Last reported at 2017-Nov-17 07:02 UTC. Time now 2017-Nov-18 17:57 UTC.
Position N 34°37' E 134°57'.

Length 70 m; draft 5 m.

Type: Cargo ship. MMSI: 431007549.

Date/timePositionNaut miles runAvg speedWind from/ knotsBaromVisibWave heightAir tempDewpointWater temp
2017-Nov-17 07:02N 34°37' E 134°57'0 9.7
2017-Nov-17 07:00N 34°37' E 134°57'5 9.4
2017-Nov-17 06:26N 34°36' E 135°04'410.0
2017-Nov-17 06:01N 34°36' E 135°09'510.5
2017-Nov-17 05:30N 34°37' E 135°15'510.0
2017-Nov-17 05:00N 34°39' E 135°21'5 8.9
2017-Nov-17 04:30N 34°40' E 135°27'1 0.8
2017-Nov-17 03:39N 34°40' E 135°27'0 0.0
2017-Nov-17 03:30N 34°40' E 135°27'0 0.0
2017-Nov-17 02:59N 34°40' E 135°27'0 0.0
2017-Nov-17 02:30N 34°40' E 135°27'0 0.2
2017-Nov-17 01:59N 34°40' E 135°27'4 7.6
2017-Nov-17 01:31N 34°40' E 135°23'4 7.6
2017-Nov-17 01:01N 34°43' E 135°20'0 0.0
2017-Nov-17 00:29N 34°43' E 135°20'0 0.0
2017-Nov-16 23:59N 34°43' E 135°20'0 0.0
2017-Nov-16 23:28N 34°43' E 135°20'0 0.0
2017-Nov-16 23:00N 34°43' E 135°20'0 0.0
2017-Nov-16 22:30N 34°43' E 135°20'0 0.0
2017-Nov-16 22:00N 34°43' E 135°20'0 0.0
2017-Nov-16 21:30N 34°43' E 135°20'0 0.0
2017-Nov-16 21:01N 34°43' E 135°20'0 0.0
2017-Nov-16 20:30N 34°43' E 135°20'0 0.0
2017-Nov-16 20:00N 34°43' E 135°20'0 0.0
2017-Nov-16 19:30N 34°43' E 135°20'0 0.0
2017-Nov-16 19:01N 34°43' E 135°20'0 0.0
2017-Nov-16 18:31N 34°43' E 135°20'1 2.1
2017-Nov-16 18:01N 34°42' E 135°20'5 9.3
2017-Nov-16 17:30N 34°38' E 135°18'510.4
2017-Nov-16 17:00N 34°35' E 135°12'611.5
2017-Nov-16 16:30N 34°35' E 135°05'14 0.3
2017-Nov-14 14:03N 34°33' E 134°48'1 9.7
2017-Nov-14 13:54N 34°34' E 134°49'4 9.0
2017-Nov-14 13:29N 34°36' E 134°53'5 9.4
2017-Nov-14 12:59N 34°37' E 134°59'4 8.8
2017-Nov-14 12:30N 34°36' E 135°04'510.6
2017-Nov-14 12:00N 34°37' E 135°10'510.9
2017-Nov-14 11:31N 34°38' E 135°16'510.2
2017-Nov-14 11:00N 34°38' E 135°23'4 7.7
2017-Nov-14 10:28N 34°40' E 135°27'0 0.0
2017-Nov-14 10:00N 34°40' E 135°27'0 0.0
2017-Nov-14 09:30N 34°40' E 135°27'0 0.0
2017-Nov-14 09:00N 34°40' E 135°27'0 0.0
2017-Nov-14 08:29N 34°40' E 135°27'0 0.0
2017-Nov-14 08:00N 34°40' E 135°27'0 0.1
2017-Nov-14 07:29N 34°40' E 135°27'4 8.6
2017-Nov-14 07:00N 34°38' E 135°23'611.6
2017-Nov-14 06:30N 34°33' E 135°19'611.6
2017-Nov-14 05:59N 34°29' E 135°14'1611.7
2017-Nov-14 04:34N 34°15' E 135°03'112.3
2017-Nov-14 04:30N 34°14' E 135°03'611.8
2017-Nov-14 04:00N 34°08' E 135°03'  
2017-Nov-10 04:09N 34°37' E 134°57'413.0
2017-Nov-10 03:49N 34°37' E 135°03'411.2
2017-Nov-10 03:28N 34°37' E 135°07'510.9
2017-Nov-10 03:00N 34°37' E 135°13'510.2
2017-Nov-10 02:30N 34°40' E 135°19'3 5.3
2017-Nov-10 02:00N 34°43' E 135°20'0 0.0
2017-Nov-10 01:30N 34°43' E 135°20'1 2.7
2017-Nov-10 01:00N 34°42' E 135°21'4 8.5
2017-Nov-10 00:30N 34°39' E 135°26'1 2.6
2017-Nov-09 23:59N 34°40' E 135°27'0 0.0
2017-Nov-09 23:30N 34°40' E 135°27'0 0.0
2017-Nov-09 23:00N 34°40' E 135°27'0 0.0
2017-Nov-09 22:30N 34°40' E 135°27'0 0.0
2017-Nov-09 22:00N 34°40' E 135°27'0 0.0
2017-Nov-09 21:30N 34°40' E 135°27'0 0.0
2017-Nov-09 21:00N 34°40' E 135°27'0 0.0
2017-Nov-09 20:30N 34°40' E 135°27'0 0.0
2017-Nov-09 20:00N 34°40' E 135°27'0 0.0
2017-Nov-09 19:30N 34°40' E 135°27'0 0.0
2017-Nov-09 19:00N 34°40' E 135°27'0 0.0
2017-Nov-09 18:30N 34°40' E 135°27'0 0.0
2017-Nov-09 18:00N 34°40' E 135°27'0 0.0
2017-Nov-09 17:30N 34°40' E 135°27'0 0.0
2017-Nov-09 17:00N 34°40' E 135°27'0 0.0
2017-Nov-09 16:30N 34°40' E 135°27'0 0.0
2017-Nov-09 16:00N 34°40' E 135°27'0 0.0
2017-Nov-09 15:30N 34°40' E 135°27'0 0.0
2017-Nov-09 15:00N 34°40' E 135°27'0 0.0
2017-Nov-09 14:30N 34°40' E 135°27'0 0.0
2017-Nov-09 14:00N 34°40' E 135°27'0 0.0
2017-Nov-09 13:30N 34°40' E 135°27'0 0.0
2017-Nov-09 13:00N 34°40' E 135°27'0 0.0
2017-Nov-09 12:30N 34°40' E 135°27'0 0.0
2017-Nov-09 12:00N 34°40' E 135°27'0 0.0
2017-Nov-09 11:30N 34°40' E 135°27'0 0.0
2017-Nov-09 11:00N 34°40' E 135°27'0 0.0
2017-Nov-09 10:30N 34°40' E 135°27'0 0.0
2017-Nov-09 10:00N 34°40' E 135°27'0 0.0
2017-Nov-09 09:29N 34°40' E 135°27'0 0.0
2017-Nov-09 08:59N 34°40' E 135°27'0 0.0
2017-Nov-09 08:30N 34°40' E 135°27'0 0.0
2017-Nov-09 08:00N 34°40' E 135°27'0 0.0
2017-Nov-09 07:30N 34°40' E 135°27'0 0.0
2017-Nov-09 06:58N 34°40' E 135°27'0 0.0
2017-Nov-09 06:30N 34°40' E 135°27'0 0.9
2017-Nov-09 06:00N 34°40' E 135°27'3 5.4
2017-Nov-09 05:30N 34°38' E 135°28'1 0.5
2017-Nov-09 03:44N 34°38' E 135°28'1 6.0
2017-Nov-09 03:30N 34°38' E 135°27'0 0.7
2017-Nov-09 02:57N 34°38' E 135°27'0 0.0
2017-Nov-09 02:30N 34°38' E 135°27'0 0.0
2017-Nov-09 01:58N 34°38' E 135°27'0 0.0
2017-Nov-09 01:27N 34°38' E 135°27'0 0.0
2017-Nov-09 01:00N 34°38' E 135°27'1 1.1
2017-Nov-09 00:30N 34°38' E 135°27'2 4.6
2017-Nov-09 00:00N 34°40' E 135°25'0 0.0
2017-Nov-08 23:30N 34°40' E 135°25'0 0.0
2017-Nov-08 23:00N 34°40' E 135°25'0 0.0
2017-Nov-08 22:30N 34°40' E 135°25'0 0.0
2017-Nov-08 22:00N 34°40' E 135°25'0 0.0
2017-Nov-08 21:30N 34°40' E 135°25'1 1.5
2017-Nov-08 21:00N 34°40' E 135°25'4 8.2
2017-Nov-08 20:30N 34°38' E 135°20'1 1.1
2017-Nov-08 20:00N 34°38' E 135°20'0 0.0
2017-Nov-08 19:30N 34°38' E 135°20'0 0.0
2017-Nov-08 19:00N 34°38' E 135°20'0 0.0
2017-Nov-08 18:30N 34°38' E 135°20'0 0.0
2017-Nov-08 18:00N 34°38' E 135°20'0 0.0
2017-Nov-08 17:30N 34°38' E 135°20'0 0.1
2017-Nov-08 17:00N 34°38' E 135°20'0 0.0
2017-Nov-08 16:30N 34°38' E 135°20'0 0.0
2017-Nov-08 16:00N 34°38' E 135°20'0 0.0
2017-Nov-08 15:30N 34°38' E 135°20'0 0.1
2017-Nov-08 15:00N 34°38' E 135°20'0 0.0
2017-Nov-08 14:30N 34°38' E 135°20'0 0.0
2017-Nov-08 14:00N 34°38' E 135°20'0 0.1
2017-Nov-08 13:30N 34°38' E 135°20'0 0.1
2017-Nov-08 13:00N 34°38' E 135°20'3 5.4
2017-Nov-08 12:30N 34°36' E 135°17'510.5
2017-Nov-08 12:00N 34°35' E 135°11'611.4
2017-Nov-08 11:30N 34°35' E 135°04'  
Track history (hours):
 
Tides and Currents Weather Stations Pressure Air Temp Water Temp Dewpoint Dewpoint Depression Visibility Wind Speed Wind Dir Waves Ship Positions

Poseidon

Last reported at 2017-Nov-17 07:02 UTC. Time now 2017-Nov-18 17:57 UTC.
Position N 34°37' E 134°57'.

Length 70 m; draft 5 m.

Type: Cargo ship. MMSI: 431007549.

Date/timePositionNaut miles runAvg speedWind from/ knotsBaromVisibWave heightAir tempDewpointWater temp
2017-Nov-17 07:02N 34°37' E 134°57'0 9.7
2017-Nov-17 07:00N 34°37' E 134°57'5 9.4
2017-Nov-17 06:26N 34°36' E 135°04'410.0
2017-Nov-17 06:01N 34°36' E 135°09'510.5
2017-Nov-17 05:30N 34°37' E 135°15'510.0
2017-Nov-17 05:00N 34°39' E 135°21'5 8.9
2017-Nov-17 04:30N 34°40' E 135°27'1 0.8
2017-Nov-17 03:39N 34°40' E 135°27'0 0.0
2017-Nov-17 03:30N 34°40' E 135°27'0 0.0
2017-Nov-17 02:59N 34°40' E 135°27'0 0.0
2017-Nov-17 02:30N 34°40' E 135°27'0 0.2
2017-Nov-17 01:59N 34°40' E 135°27'4 7.6
2017-Nov-17 01:31N 34°40' E 135°23'4 7.6
2017-Nov-17 01:01N 34°43' E 135°20'0 0.0
2017-Nov-17 00:29N 34°43' E 135°20'0 0.0
2017-Nov-16 23:59N 34°43' E 135°20'0 0.0
2017-Nov-16 23:28N 34°43' E 135°20'0 0.0
2017-Nov-16 23:00N 34°43' E 135°20'0 0.0
2017-Nov-16 22:30N 34°43' E 135°20'0 0.0
2017-Nov-16 22:00N 34°43' E 135°20'0 0.0
2017-Nov-16 21:30N 34°43' E 135°20'0 0.0
2017-Nov-16 21:01N 34°43' E 135°20'0 0.0
2017-Nov-16 20:30N 34°43' E 135°20'0 0.0
2017-Nov-16 20:00N 34°43' E 135°20'0 0.0
2017-Nov-16 19:30N 34°43' E 135°20'0 0.0
2017-Nov-16 19:01N 34°43' E 135°20'0 0.0
2017-Nov-16 18:31N 34°43' E 135°20'1 2.1
2017-Nov-16 18:01N 34°42' E 135°20'5 9.3
2017-Nov-16 17:30N 34°38' E 135°18'510.4
2017-Nov-16 17:00N 34°35' E 135°12'611.5
2017-Nov-16 16:30N 34°35' E 135°05'14 0.3
2017-Nov-14 14:03N 34°33' E 134°48'1 9.7
2017-Nov-14 13:54N 34°34' E 134°49'4 9.0
2017-Nov-14 13:29N 34°36' E 134°53'5 9.4
2017-Nov-14 12:59N 34°37' E 134°59'4 8.8
2017-Nov-14 12:30N 34°36' E 135°04'510.6
2017-Nov-14 12:00N 34°37' E 135°10'510.9
2017-Nov-14 11:31N 34°38' E 135°16'510.2
2017-Nov-14 11:00N 34°38' E 135°23'4 7.7
2017-Nov-14 10:28N 34°40' E 135°27'0 0.0
2017-Nov-14 10:00N 34°40' E 135°27'0 0.0
2017-Nov-14 09:30N 34°40' E 135°27'0 0.0
2017-Nov-14 09:00N 34°40' E 135°27'0 0.0
2017-Nov-14 08:29N 34°40' E 135°27'0 0.0
2017-Nov-14 08:00N 34°40' E 135°27'0 0.1
2017-Nov-14 07:29N 34°40' E 135°27'4 8.6
2017-Nov-14 07:00N 34°38' E 135°23'611.6
2017-Nov-14 06:30N 34°33' E 135°19'611.6
2017-Nov-14 05:59N 34°29' E 135°14'1611.7
2017-Nov-14 04:34N 34°15' E 135°03'112.3
2017-Nov-14 04:30N 34°14' E 135°03'611.8
2017-Nov-14 04:00N 34°08' E 135°03'  
2017-Nov-10 04:09N 34°37' E 134°57'413.0
2017-Nov-10 03:49N 34°37' E 135°03'411.2
2017-Nov-10 03:28N 34°37' E 135°07'510.9
2017-Nov-10 03:00N 34°37' E 135°13'510.2
2017-Nov-10 02:30N 34°40' E 135°19'3 5.3
2017-Nov-10 02:00N 34°43' E 135°20'0 0.0
2017-Nov-10 01:30N 34°43' E 135°20'1 2.7
2017-Nov-10 01:00N 34°42' E 135°21'4 8.5
2017-Nov-10 00:30N 34°39' E 135°26'1 2.6
2017-Nov-09 23:59N 34°40' E 135°27'0 0.0
2017-Nov-09 23:30N 34°40' E 135°27'0 0.0
2017-Nov-09 23:00N 34°40' E 135°27'0 0.0
2017-Nov-09 22:30N 34°40' E 135°27'0 0.0
2017-Nov-09 22:00N 34°40' E 135°27'0 0.0
2017-Nov-09 21:30N 34°40' E 135°27'0 0.0
2017-Nov-09 21:00N 34°40' E 135°27'0 0.0
2017-Nov-09 20:30N 34°40' E 135°27'0 0.0
2017-Nov-09 20:00N 34°40' E 135°27'0 0.0
2017-Nov-09 19:30N 34°40' E 135°27'0 0.0
2017-Nov-09 19:00N 34°40' E 135°27'0 0.0
2017-Nov-09 18:30N 34°40' E 135°27'0 0.0
2017-Nov-09 18:00N 34°40' E 135°27'0 0.0
2017-Nov-09 17:30N 34°40' E 135°27'0 0.0
2017-Nov-09 17:00N 34°40' E 135°27'0 0.0
2017-Nov-09 16:30N 34°40' E 135°27'0 0.0
2017-Nov-09 16:00N 34°40' E 135°27'0 0.0
2017-Nov-09 15:30N 34°40' E 135°27'0 0.0
2017-Nov-09 15:00N 34°40' E 135°27'0 0.0
2017-Nov-09 14:30N 34°40' E 135°27'0 0.0
2017-Nov-09 14:00N 34°40' E 135°27'0 0.0
2017-Nov-09 13:30N 34°40' E 135°27'0 0.0
2017-Nov-09 13:00N 34°40' E 135°27'0 0.0
2017-Nov-09 12:30N 34°40' E 135°27'0 0.0
2017-Nov-09 12:00N 34°40' E 135°27'0 0.0
2017-Nov-09 11:30N 34°40' E 135°27'0 0.0
2017-Nov-09 11:00N 34°40' E 135°27'0 0.0
2017-Nov-09 10:30N 34°40' E 135°27'0 0.0
2017-Nov-09 10:00N 34°40' E 135°27'0 0.0
2017-Nov-09 09:29N 34°40' E 135°27'0 0.0
2017-Nov-09 08:59N 34°40' E 135°27'0 0.0
2017-Nov-09 08:30N 34°40' E 135°27'0 0.0
2017-Nov-09 08:00N 34°40' E 135°27'0 0.0
2017-Nov-09 07:30N 34°40' E 135°27'0 0.0
2017-Nov-09 06:58N 34°40' E 135°27'0 0.0
2017-Nov-09 06:30N 34°40' E 135°27'0 0.9
2017-Nov-09 06:00N 34°40' E 135°27'3 5.4
2017-Nov-09 05:30N 34°38' E 135°28'1 0.5
2017-Nov-09 03:44N 34°38' E 135°28'1 6.0
2017-Nov-09 03:30N 34°38' E 135°27'0 0.7
2017-Nov-09 02:57N 34°38' E 135°27'0 0.0
2017-Nov-09 02:30N 34°38' E 135°27'0 0.0
2017-Nov-09 01:58N 34°38' E 135°27'0 0.0
2017-Nov-09 01:27N 34°38' E 135°27'0 0.0
2017-Nov-09 01:00N 34°38' E 135°27'1 1.1
2017-Nov-09 00:30N 34°38' E 135°27'2 4.6
2017-Nov-09 00:00N 34°40' E 135°25'0 0.0
2017-Nov-08 23:30N 34°40' E 135°25'0 0.0
2017-Nov-08 23:00N 34°40' E 135°25'0 0.0
2017-Nov-08 22:30N 34°40' E 135°25'0 0.0
2017-Nov-08 22:00N 34°40' E 135°25'0 0.0
2017-Nov-08 21:30N 34°40' E 135°25'1 1.5
2017-Nov-08 21:00N 34°40' E 135°25'4 8.2
2017-Nov-08 20:30N 34°38' E 135°20'1 1.1
2017-Nov-08 20:00N 34°38' E 135°20'0 0.0
2017-Nov-08 19:30N 34°38' E 135°20'0 0.0
2017-Nov-08 19:00N 34°38' E 135°20'0 0.0
2017-Nov-08 18:30N 34°38' E 135°20'0 0.0
2017-Nov-08 18:00N 34°38' E 135°20'0 0.0
2017-Nov-08 17:30N 34°38' E 135°20'0 0.1
2017-Nov-08 17:00N 34°38' E 135°20'0 0.0
2017-Nov-08 16:30N 34°38' E 135°20'0 0.0
2017-Nov-08 16:00N 34°38' E 135°20'0 0.0
2017-Nov-08 15:30N 34°38' E 135°20'0 0.1
2017-Nov-08 15:00N 34°38' E 135°20'0 0.0
2017-Nov-08 14:30N 34°38' E 135°20'0 0.0
2017-Nov-08 14:00N 34°38' E 135°20'0 0.1
2017-Nov-08 13:30N 34°38' E 135°20'0 0.1
2017-Nov-08 13:00N 34°38' E 135°20'3 5.4
2017-Nov-08 12:30N 34°36' E 135°17'510.5
2017-Nov-08 12:00N 34°35' E 135°11'611.4
2017-Nov-08 11:30N 34°35' E 135°04'  

Dump ship's entire track history